AAL625 KSAN-KPHX
Flight info
| Callsign | AAL625 |
|---|---|
| Flight time | 0h 51m |
| Altitude | 33000 |
| Route | ZZOOO4 HOGGZ HYDRR1 |
| Aircraft | A321/M-SDE3FGHIRWY/LB1 |
Departure
| Time | 2026-05-05 02:46 |
|---|---|
| Airport | San Diego International Airport (KSAN) |
Arrival
| Time | 2026-05-05 03:38 |
|---|---|
| Airport | Phoenix Sky Harbor International Airport (KPHX) |
| Time | Latitude | Longitude | Altitude | Speed | Heading |
|---|---|---|---|---|---|
| 2026-05-05 00:44 | 32.73338 | -117.20186 | 21 ft | 0 kts | 82° |
| 2026-05-05 01:10 | 32.73338 | -117.20187 | 21 ft | 0 kts | 82° |
| 2026-05-05 01:39 | 32.73295 | -117.20165 | 21 ft | 0 kts | 91° |
| 2026-05-05 02:22 | 32.73295 | -117.20166 | 21 ft | 0 kts | 91° |
| 2026-05-05 02:32 | 32.73295 | -117.20175 | 21 ft | 4 kts | 91° |
| 2026-05-05 02:33 | 32.73295 | -117.20202 | 21 ft | 3 kts | 91° |
| 2026-05-05 02:33 | 32.73299 | -117.20231 | 21 ft | 4 kts | 117° |
| 2026-05-05 02:33 | 32.73303 | -117.20240 | 21 ft | 0 kts | 128° |
| 2026-05-05 02:35 | 32.73303 | -117.20239 | 21 ft | 0 kts | 128° |
| 2026-05-05 02:35 | 32.73302 | -117.20239 | 21 ft | 0 kts | 128° |
| 2026-05-05 02:36 | 32.73304 | -117.20242 | 21 ft | 2 kts | 128° |
| 2026-05-05 02:36 | 32.73315 | -117.20257 | 21 ft | 2 kts | 128° |
| 2026-05-05 02:36 | 32.73325 | -117.20272 | 21 ft | 2 kts | 128° |
| 2026-05-05 02:36 | 32.73335 | -117.20287 | 21 ft | 2 kts | 128° |
| 2026-05-05 02:37 | 32.73345 | -117.20303 | 21 ft | 2 kts | 128° |
| 2026-05-05 02:37 | 32.73353 | -117.20314 | 21 ft | 0 kts | 128° |
| 2026-05-05 02:39 | 32.73356 | -117.20292 | 21 ft | 6 kts | 60° |
| 2026-05-05 02:39 | 32.73397 | -117.20275 | 23 ft | 7 kts | 17° |
| 2026-05-05 02:39 | 32.73452 | -117.20257 | 21 ft | 9 kts | 15° |
| 2026-05-05 02:39 | 32.73511 | -117.20237 | 22 ft | 6 kts | 15° |
| 2026-05-05 02:40 | 32.73545 | -117.20195 | 23 ft | 12 kts | 73° |
| 2026-05-05 02:40 | 32.73530 | -117.20100 | 24 ft | 12 kts | 105° |
| 2026-05-05 02:40 | 32.73503 | -117.19988 | 23 ft | 13 kts | 105° |
| 2026-05-05 02:40 | 32.73474 | -117.19870 | 24 ft | 16 kts | 106° |
| 2026-05-05 02:41 | 32.73441 | -117.19734 | 23 ft | 17 kts | 106° |
| 2026-05-05 02:41 | 32.73409 | -117.19602 | 24 ft | 16 kts | 106° |
| 2026-05-05 02:41 | 32.73377 | -117.19473 | 24 ft | 17 kts | 106° |
| 2026-05-05 02:41 | 32.73342 | -117.19328 | 21 ft | 19 kts | 107° |
| 2026-05-05 02:42 | 32.73303 | -117.19173 | 21 ft | 19 kts | 107° |
| 2026-05-05 02:42 | 32.73266 | -117.19020 | 22 ft | 20 kts | 105° |
| 2026-05-05 02:42 | 32.73228 | -117.18861 | 26 ft | 20 kts | 107° |
| 2026-05-05 02:42 | 32.73190 | -117.18704 | 24 ft | 20 kts | 105° |
| 2026-05-05 02:43 | 32.73150 | -117.18535 | 21 ft | 21 kts | 104° |
| 2026-05-05 02:43 | 32.73113 | -117.18377 | 21 ft | 19 kts | 107° |
| 2026-05-05 02:43 | 32.73075 | -117.18223 | 20 ft | 21 kts | 106° |
| 2026-05-05 02:43 | 32.73031 | -117.18051 | 17 ft | 21 kts | 105° |
| 2026-05-05 02:44 | 32.72996 | -117.17906 | 19 ft | 18 kts | 107° |
| 2026-05-05 02:44 | 32.72966 | -117.17781 | 16 ft | 14 kts | 105° |
| 2026-05-05 02:44 | 32.72951 | -117.17700 | 17 ft | 9 kts | 92° |
| 2026-05-05 02:44 | 32.72963 | -117.17630 | 19 ft | 10 kts | 73° |
| 2026-05-05 02:45 | 32.73018 | -117.17590 | 21 ft | 12 kts | 324° |
| 2026-05-05 02:45 | 32.73031 | -117.17624 | 19 ft | 0 kts | 288° |
| 2026-05-05 02:45 | 32.73036 | -117.17645 | 19 ft | 19 kts | 287° |
| 2026-05-05 02:46 | 32.73148 | -117.18109 | 21 ft | 95 kts | 285° |
| 2026-05-05 02:46 | 32.73385 | -117.19107 | 25 ft | 153 kts | 285° |
| 2026-05-05 02:46 | 32.73680 | -117.20333 | 672 ft | 152 kts | 287° |
| 2026-05-05 02:46 | 32.73974 | -117.21542 | 1378 ft | 153 kts | 286° |
| 2026-05-05 02:47 | 32.74272 | -117.22768 | 1977 ft | 159 kts | 285° |
| 2026-05-05 02:47 | 32.74595 | -117.24113 | 2246 ft | 180 kts | 285° |
| 2026-05-05 02:47 | 32.74952 | -117.25608 | 2460 ft | 201 kts | 284° |
| 2026-05-05 02:47 | 32.75358 | -117.27297 | 2621 ft | 225 kts | 284° |
| 2026-05-05 02:48 | 32.75808 | -117.29147 | 3115 ft | 234 kts | 285° |
| 2026-05-05 02:48 | 32.76269 | -117.31027 | 3910 ft | 239 kts | 284° |
| 2026-05-05 02:48 | 32.76518 | -117.32965 | 4665 ft | 239 kts | 261° |
| 2026-05-05 02:48 | 32.75795 | -117.34711 | 5377 ft | 242 kts | 223° |
| 2026-05-05 02:49 | 32.74286 | -117.35574 | 6092 ft | 248 kts | 187° |
| 2026-05-05 02:49 | 32.72590 | -117.35185 | 6771 ft | 259 kts | 151° |
| 2026-05-05 02:49 | 32.71142 | -117.33890 | 7535 ft | 264 kts | 138° |
| 2026-05-05 02:49 | 32.69826 | -117.32341 | 8315 ft | 268 kts | 135° |
| 2026-05-05 02:50 | 32.68535 | -117.30732 | 9052 ft | 270 kts | 135° |
| 2026-05-05 02:50 | 32.67231 | -117.29150 | 9746 ft | 273 kts | 137° |
| 2026-05-05 02:50 | 32.65863 | -117.27565 | 10433 ft | 276 kts | 140° |
| 2026-05-05 02:50 | 32.64478 | -117.25963 | 11113 ft | 281 kts | 134° |
| 2026-05-05 02:51 | 32.63408 | -117.23983 | 11752 ft | 291 kts | 117° |
| 2026-05-05 02:51 | 32.62835 | -117.21577 | 12001 ft | 318 kts | 99° |
| 2026-05-05 02:51 | 32.62586 | -117.18871 | 12166 ft | 341 kts | 99° |
| 2026-05-05 02:51 | 32.62330 | -117.15975 | 12308 ft | 364 kts | 98° |
| 2026-05-05 02:52 | 32.62086 | -117.12941 | 12733 ft | 375 kts | 95° |
| 2026-05-05 02:52 | 32.62265 | -117.09866 | 13297 ft | 384 kts | 80° |
| 2026-05-05 02:52 | 32.63048 | -117.06824 | 13884 ft | 390 kts | 69° |
| 2026-05-05 02:52 | 32.64042 | -117.03809 | 14461 ft | 395 kts | 69° |
| 2026-05-05 02:53 | 32.65047 | -117.00755 | 15059 ft | 400 kts | 69° |
| 2026-05-05 02:53 | 32.66027 | -116.97647 | 15616 ft | 404 kts | 74° |
| 2026-05-05 02:53 | 32.66617 | -116.94381 | 16173 ft | 406 kts | 86° |
| 2026-05-05 02:53 | 32.66753 | -116.91024 | 16729 ft | 409 kts | 91° |
| 2026-05-05 02:54 | 32.66820 | -116.87632 | 17281 ft | 414 kts | 91° |
| 2026-05-05 02:54 | 32.66897 | -116.84196 | 17802 ft | 419 kts | 91° |
| 2026-05-05 02:54 | 32.66975 | -116.80768 | 18305 ft | 424 kts | 91° |
| 2026-05-05 02:54 | 32.67058 | -116.77255 | 18834 ft | 428 kts | 92° |
| 2026-05-05 02:55 | 32.67129 | -116.73710 | 19309 ft | 432 kts | 93° |
| 2026-05-05 02:55 | 32.67129 | -116.70131 | 19809 ft | 435 kts | 95° |
| 2026-05-05 02:55 | 32.67070 | -116.66523 | 20311 ft | 439 kts | 96° |
| 2026-05-05 02:55 | 32.66981 | -116.62887 | 20810 ft | 443 kts | 97° |
| 2026-05-05 02:56 | 32.66886 | -116.59219 | 21305 ft | 446 kts | 97° |
| 2026-05-05 02:56 | 32.66797 | -116.55519 | 21757 ft | 451 kts | 97° |
| 2026-05-05 02:56 | 32.66718 | -116.51783 | 22262 ft | 454 kts | 97° |
| 2026-05-05 02:56 | 32.66649 | -116.48071 | 22719 ft | 458 kts | 97° |
| 2026-05-05 02:57 | 32.66587 | -116.44281 | 23148 ft | 462 kts | 97° |
| 2026-05-05 02:57 | 32.66746 | -116.40437 | 23541 ft | 471 kts | 89° |
| 2026-05-05 02:57 | 32.67117 | -116.36556 | 23946 ft | 474 kts | 90° |
| 2026-05-05 02:57 | 32.67483 | -116.32656 | 24358 ft | 477 kts | 90° |
| 2026-05-05 02:58 | 32.67843 | -116.28735 | 24748 ft | 480 kts | 90° |
| 2026-05-05 02:58 | 32.68200 | -116.24781 | 25107 ft | 483 kts | 90° |
| 2026-05-05 02:58 | 32.68555 | -116.20807 | 25469 ft | 486 kts | 91° |
| 2026-05-05 02:58 | 32.68910 | -116.16802 | 25813 ft | 489 kts | 91° |
| 2026-05-05 02:59 | 32.69261 | -116.12824 | 26122 ft | 493 kts | 91° |
| 2026-05-05 02:59 | 32.69619 | -116.08767 | 26473 ft | 496 kts | 90° |
| 2026-05-05 02:59 | 32.69982 | -116.04684 | 26791 ft | 499 kts | 91° |
| 2026-05-05 02:59 | 32.70348 | -116.00589 | 27169 ft | 501 kts | 91° |
| 2026-05-05 03:00 | 32.70725 | -115.96466 | 27479 ft | 503 kts | 90° |
| 2026-05-05 03:00 | 32.71108 | -115.92326 | 27800 ft | 506 kts | 90° |
| 2026-05-05 03:00 | 32.71495 | -115.88159 | 28090 ft | 509 kts | 90° |
| 2026-05-05 03:00 | 32.71883 | -115.83970 | 28388 ft | 512 kts | 90° |
| 2026-05-05 03:01 | 32.72269 | -115.79813 | 28674 ft | 515 kts | 90° |
| 2026-05-05 03:01 | 32.72661 | -115.75579 | 28955 ft | 517 kts | 90° |
| 2026-05-05 03:01 | 32.73053 | -115.71321 | 29207 ft | 520 kts | 90° |
| 2026-05-05 03:01 | 32.73443 | -115.67041 | 29467 ft | 523 kts | 90° |
| 2026-05-05 03:02 | 32.73830 | -115.62735 | 29748 ft | 525 kts | 91° |
| 2026-05-05 03:02 | 32.74215 | -115.58414 | 30002 ft | 528 kts | 91° |
| 2026-05-05 03:02 | 32.74600 | -115.54069 | 30245 ft | 530 kts | 91° |
| 2026-05-05 03:02 | 32.74966 | -115.49699 | 30501 ft | 531 kts | 92° |
| 2026-05-05 03:03 | 32.75213 | -115.45318 | 30727 ft | 532 kts | 95° |
| 2026-05-05 03:03 | 32.75339 | -115.40917 | 30938 ft | 534 kts | 97° |
| 2026-05-05 03:03 | 32.75385 | -115.36563 | 31207 ft | 534 kts | 98° |
| 2026-05-05 03:03 | 32.75405 | -115.32151 | 31541 ft | 535 kts | 98° |
| 2026-05-05 03:04 | 32.75439 | -115.27722 | 31841 ft | 537 kts | 97° |
| 2026-05-05 03:04 | 32.75503 | -115.23276 | 32115 ft | 539 kts | 97° |
| 2026-05-05 03:04 | 32.75593 | -115.18816 | 32401 ft | 541 kts | 97° |
| 2026-05-05 03:04 | 32.75704 | -115.14346 | 32688 ft | 542 kts | 97° |
| 2026-05-05 03:05 | 32.75823 | -115.09860 | 32881 ft | 544 kts | 96° |
| 2026-05-05 03:05 | 32.76051 | -115.01062 | 32923 ft | 531 kts | 97° |
| 2026-05-05 03:06 | 32.76231 | -114.92336 | 32921 ft | 527 kts | 97° |
| 2026-05-05 03:06 | 32.76387 | -114.83625 | 32915 ft | 528 kts | 97° |
| 2026-05-05 03:07 | 32.76556 | -114.74906 | 32915 ft | 528 kts | 97° |
| 2026-05-05 03:07 | 32.76718 | -114.66181 | 32911 ft | 528 kts | 97° |
| 2026-05-05 03:08 | 32.76864 | -114.57513 | 32915 ft | 528 kts | 97° |
| 2026-05-05 03:08 | 32.76990 | -114.48777 | 32923 ft | 529 kts | 97° |
| 2026-05-05 03:09 | 32.77105 | -114.40040 | 32921 ft | 529 kts | 97° |
| 2026-05-05 03:09 | 32.77209 | -114.31303 | 32921 ft | 529 kts | 97° |
| 2026-05-05 03:10 | 32.77309 | -114.22617 | 32917 ft | 530 kts | 97° |
| 2026-05-05 03:10 | 32.77361 | -114.18235 | 32731 ft | 532 kts | 97° |
| 2026-05-05 03:10 | 32.77411 | -114.13839 | 31747 ft | 529 kts | 97° |
| 2026-05-05 03:10 | 32.77472 | -114.09561 | 31398 ft | 507 kts | 97° |
| 2026-05-05 03:11 | 32.77675 | -114.05390 | 30890 ft | 509 kts | 89° |
| 2026-05-05 03:11 | 32.78130 | -114.01229 | 30411 ft | 507 kts | 89° |
| 2026-05-05 03:11 | 32.78584 | -113.97091 | 29927 ft | 504 kts | 88° |
| 2026-05-05 03:11 | 32.79031 | -113.93029 | 29481 ft | 501 kts | 88° |
| 2026-05-05 03:12 | 32.79482 | -113.88942 | 29012 ft | 497 kts | 88° |
| 2026-05-05 03:12 | 32.79927 | -113.84882 | 28562 ft | 494 kts | 89° |
| 2026-05-05 03:12 | 32.80371 | -113.80853 | 28125 ft | 489 kts | 89° |
| 2026-05-05 03:12 | 32.80802 | -113.76859 | 27686 ft | 486 kts | 90° |
| 2026-05-05 03:13 | 32.81379 | -113.72909 | 27249 ft | 488 kts | 80° |
| 2026-05-05 03:13 | 32.82514 | -113.69101 | 26814 ft | 490 kts | 68° |
| 2026-05-05 03:13 | 32.84218 | -113.65591 | 26379 ft | 490 kts | 56° |
| 2026-05-05 03:13 | 32.86380 | -113.62491 | 25932 ft | 480 kts | 49° |
| 2026-05-05 03:14 | 32.88567 | -113.59577 | 25518 ft | 467 kts | 49° |
| 2026-05-05 03:14 | 32.90669 | -113.56760 | 25103 ft | 459 kts | 49° |
| 2026-05-05 03:14 | 32.92776 | -113.53922 | 24664 ft | 457 kts | 50° |
| 2026-05-05 03:14 | 32.94870 | -113.51090 | 24225 ft | 454 kts | 50° |
| 2026-05-05 03:15 | 32.96916 | -113.48317 | 23793 ft | 437 kts | 50° |
| 2026-05-05 03:15 | 32.98906 | -113.45622 | 23367 ft | 431 kts | 50° |
| 2026-05-05 03:15 | 33.00883 | -113.42946 | 22935 ft | 429 kts | 50° |
| 2026-05-05 03:15 | 33.02850 | -113.40284 | 22500 ft | 427 kts | 50° |
| 2026-05-05 03:16 | 33.04808 | -113.37634 | 22062 ft | 425 kts | 49° |
| 2026-05-05 03:16 | 33.06757 | -113.34995 | 21714 ft | 421 kts | 49° |
| 2026-05-05 03:16 | 33.08659 | -113.32426 | 21483 ft | 419 kts | 49° |
| 2026-05-05 03:16 | 33.10579 | -113.29833 | 21220 ft | 416 kts | 49° |
| 2026-05-05 03:17 | 33.12491 | -113.27250 | 20960 ft | 414 kts | 49° |
| 2026-05-05 03:17 | 33.14389 | -113.24681 | 20698 ft | 412 kts | 49° |
| 2026-05-05 03:17 | 33.16280 | -113.22120 | 20438 ft | 410 kts | 49° |
| 2026-05-05 03:17 | 33.18158 | -113.19577 | 20186 ft | 408 kts | 49° |
| 2026-05-05 03:18 | 33.20027 | -113.17044 | 19924 ft | 405 kts | 49° |
| 2026-05-05 03:18 | 33.21886 | -113.14523 | 19672 ft | 404 kts | 48° |
| 2026-05-05 03:18 | 33.23737 | -113.12007 | 19425 ft | 401 kts | 48° |
| 2026-05-05 03:18 | 33.25415 | -113.09427 | 19175 ft | 397 kts | 59° |
| 2026-05-05 03:19 | 33.27385 | -113.03379 | 18663 ft | 387 kts | 85° |
| 2026-05-05 03:19 | 33.27608 | -113.00209 | 18408 ft | 381 kts | 94° |
| 2026-05-05 03:19 | 33.27677 | -112.97046 | 18151 ft | 380 kts | 93° |
| 2026-05-05 03:20 | 33.27753 | -112.93901 | 17892 ft | 378 kts | 93° |
| 2026-05-05 03:20 | 33.27833 | -112.90764 | 17595 ft | 377 kts | 93° |
| 2026-05-05 03:20 | 33.27913 | -112.87652 | 17442 ft | 374 kts | 93° |
| 2026-05-05 03:20 | 33.27990 | -112.84587 | 17217 ft | 373 kts | 93° |
| 2026-05-05 03:21 | 33.28108 | -112.81498 | 16967 ft | 372 kts | 90° |
| 2026-05-05 03:21 | 33.28295 | -112.78419 | 16668 ft | 371 kts | 90° |
| 2026-05-05 03:21 | 33.28517 | -112.75365 | 16347 ft | 367 kts | 88° |
| 2026-05-05 03:21 | 33.28827 | -112.72361 | 16037 ft | 362 kts | 85° |
| 2026-05-05 03:22 | 33.29166 | -112.69390 | 15665 ft | 360 kts | 85° |
| 2026-05-05 03:22 | 33.29498 | -112.66443 | 15280 ft | 355 kts | 86° |
| 2026-05-05 03:22 | 33.29804 | -112.63554 | 14833 ft | 349 kts | 86° |
| 2026-05-05 03:22 | 33.30086 | -112.60682 | 14480 ft | 347 kts | 87° |
| 2026-05-05 03:23 | 33.30356 | -112.57830 | 14144 ft | 343 kts | 87° |
| 2026-05-05 03:23 | 33.30613 | -112.55047 | 13806 ft | 340 kts | 87° |
| 2026-05-05 03:23 | 33.30869 | -112.52259 | 13487 ft | 336 kts | 87° |
| 2026-05-05 03:23 | 33.31122 | -112.49494 | 13157 ft | 333 kts | 87° |
| 2026-05-05 03:24 | 33.31372 | -112.46760 | 12835 ft | 329 kts | 87° |
| 2026-05-05 03:24 | 33.31616 | -112.44051 | 12515 ft | 327 kts | 87° |
| 2026-05-05 03:24 | 33.31859 | -112.41373 | 12191 ft | 323 kts | 87° |
| 2026-05-05 03:24 | 33.32100 | -112.38715 | 11877 ft | 321 kts | 86° |
| 2026-05-05 03:25 | 33.32337 | -112.36073 | 11563 ft | 319 kts | 87° |
| 2026-05-05 03:25 | 33.32576 | -112.33447 | 11253 ft | 318 kts | 87° |
| 2026-05-05 03:25 | 33.32815 | -112.30829 | 10944 ft | 315 kts | 87° |
| 2026-05-05 03:25 | 33.33053 | -112.28266 | 10639 ft | 313 kts | 86° |
| 2026-05-05 03:26 | 33.33291 | -112.25687 | 10336 ft | 311 kts | 86° |
| 2026-05-05 03:26 | 33.33525 | -112.23123 | 10036 ft | 309 kts | 86° |
| 2026-05-05 03:26 | 33.33753 | -112.20577 | 9771 ft | 308 kts | 86° |
| 2026-05-05 03:26 | 33.33980 | -112.18035 | 9422 ft | 306 kts | 86° |
| 2026-05-05 03:27 | 33.34202 | -112.15557 | 9333 ft | 294 kts | 86° |
| 2026-05-05 03:27 | 33.34418 | -112.13163 | 9215 ft | 284 kts | 86° |
| 2026-05-05 03:27 | 33.34627 | -112.10864 | 9113 ft | 272 kts | 86° |
| 2026-05-05 03:27 | 33.34766 | -112.08662 | 8962 ft | 259 kts | 94° |
| 2026-05-05 03:28 | 33.34733 | -112.06552 | 8660 ft | 256 kts | 94° |
| 2026-05-05 03:28 | 33.34706 | -112.04442 | 8385 ft | 253 kts | 94° |
| 2026-05-05 03:28 | 33.34680 | -112.02346 | 8124 ft | 251 kts | 94° |
| 2026-05-05 03:28 | 33.34654 | -112.00267 | 7860 ft | 250 kts | 94° |
| 2026-05-05 03:29 | 33.34628 | -111.98198 | 7600 ft | 248 kts | 94° |
| 2026-05-05 03:29 | 33.34598 | -111.96136 | 7350 ft | 247 kts | 93° |
| 2026-05-05 03:29 | 33.34562 | -111.94089 | 7112 ft | 246 kts | 93° |
| 2026-05-05 03:29 | 33.34524 | -111.92048 | 7002 ft | 245 kts | 93° |
| 2026-05-05 03:30 | 33.34483 | -111.90045 | 7019 ft | 245 kts | 93° |
| 2026-05-05 03:30 | 33.34441 | -111.88009 | 7023 ft | 245 kts | 93° |
| 2026-05-05 03:30 | 33.34398 | -111.85969 | 7026 ft | 245 kts | 93° |
| 2026-05-05 03:30 | 33.34355 | -111.83931 | 7027 ft | 245 kts | 93° |
| 2026-05-05 03:31 | 33.34313 | -111.81897 | 6961 ft | 242 kts | 93° |
| 2026-05-05 03:31 | 33.34271 | -111.79889 | 6576 ft | 242 kts | 93° |
| 2026-05-05 03:31 | 33.34267 | -111.77884 | 6197 ft | 241 kts | 84° |
| 2026-05-05 03:31 | 33.34814 | -111.76013 | 5843 ft | 239 kts | 56° |
| 2026-05-05 03:32 | 33.35959 | -111.74696 | 5712 ft | 225 kts | 30° |
| 2026-05-05 03:32 | 33.37370 | -111.74095 | 5484 ft | 211 kts | 6° |
| 2026-05-05 03:32 | 33.38791 | -111.74213 | 4967 ft | 204 kts | 342° |
| 2026-05-05 03:32 | 33.40012 | -111.74979 | 4544 ft | 193 kts | 319° |
| 2026-05-05 03:33 | 33.40886 | -111.76161 | 4065 ft | 189 kts | 303° |
| 2026-05-05 03:33 | 33.41660 | -111.77425 | 3607 ft | 187 kts | 304° |
| 2026-05-05 03:33 | 33.42433 | -111.78679 | 3470 ft | 189 kts | 304° |
| 2026-05-05 03:33 | 33.43215 | -111.79947 | 3355 ft | 189 kts | 303° |
| 2026-05-05 03:34 | 33.43819 | -111.81327 | 3217 ft | 186 kts | 287° |
| 2026-05-05 03:34 | 33.44002 | -111.82752 | 3107 ft | 165 kts | 270° |
| 2026-05-05 03:34 | 33.44034 | -111.84084 | 3044 ft | 157 kts | 269° |
| 2026-05-05 03:34 | 33.44047 | -111.85368 | 3027 ft | 153 kts | 268° |
| 2026-05-05 03:35 | 33.44054 | -111.86635 | 3024 ft | 152 kts | 267° |
| 2026-05-05 03:35 | 33.44058 | -111.87902 | 2936 ft | 152 kts | 268° |
| 2026-05-05 03:35 | 33.44063 | -111.89167 | 2775 ft | 151 kts | 268° |
| 2026-05-05 03:35 | 33.44066 | -111.90422 | 2592 ft | 150 kts | 268° |
| 2026-05-05 03:36 | 33.44068 | -111.91662 | 2401 ft | 148 kts | 269° |
| 2026-05-05 03:36 | 33.44070 | -111.92872 | 2210 ft | 147 kts | 269° |
| 2026-05-05 03:36 | 33.44073 | -111.94092 | 2017 ft | 147 kts | 269° |
| 2026-05-05 03:36 | 33.44075 | -111.95311 | 1821 ft | 147 kts | 269° |
| 2026-05-05 03:37 | 33.44077 | -111.96532 | 1629 ft | 147 kts | 269° |
| 2026-05-05 03:37 | 33.44079 | -111.97749 | 1432 ft | 146 kts | 269° |
| 2026-05-05 03:37 | 33.44082 | -111.98968 | 1260 ft | 147 kts | 270° |
| 2026-05-05 03:37 | 33.44086 | -112.00189 | 1147 ft | 146 kts | 269° |
| 2026-05-05 03:38 | 33.44081 | -112.01204 | 1136 ft | 93 kts | 270° |
| 2026-05-05 03:38 | 33.44082 | -112.01587 | 1132 ft | 25 kts | 269° |
| 2026-05-05 03:38 | 33.44034 | -112.01692 | 1133 ft | 12 kts | 202° |
| 2026-05-05 03:38 | 33.43981 | -112.01661 | 1131 ft | 10 kts | 112° |
| 2026-05-05 03:39 | 33.43975 | -112.01574 | 1131 ft | 11 kts | 90° |
| 2026-05-05 03:39 | 33.43975 | -112.01473 | 1132 ft | 13 kts | 90° |
| 2026-05-05 03:39 | 33.43976 | -112.01358 | 1133 ft | 14 kts | 89° |
| 2026-05-05 03:39 | 33.43976 | -112.01234 | 1133 ft | 15 kts | 90° |
| 2026-05-05 03:40 | 33.43977 | -112.01101 | 1134 ft | 17 kts | 89° |
| 2026-05-05 03:40 | 33.43976 | -112.00964 | 1135 ft | 16 kts | 91° |
| 2026-05-05 03:40 | 33.43975 | -112.00830 | 1135 ft | 17 kts | 90° |
| 2026-05-05 03:40 | 33.43975 | -112.00690 | 1131 ft | 18 kts | 89° |
| 2026-05-05 03:41 | 33.43975 | -112.00553 | 1131 ft | 14 kts | 90° |
| 2026-05-05 03:41 | 33.43941 | -112.00474 | 1135 ft | 11 kts | 151° |
| 2026-05-05 03:41 | 33.43905 | -112.00399 | 1134 ft | 12 kts | 94° |
| 2026-05-05 03:41 | 33.43898 | -112.00324 | 1135 ft | 8 kts | 119° |
| 2026-05-05 03:42 | 33.43875 | -112.00278 | 1131 ft | 4 kts | 134° |
| 2026-05-05 03:42 | 33.43873 | -112.00276 | 1131 ft | 1 kts | 134° |
| 2026-05-05 03:42 | 33.43862 | -112.00265 | 1133 ft | 3 kts | 144° |
| 2026-05-05 03:42 | 33.43845 | -112.00253 | 1131 ft | 2 kts | 150° |
| 2026-05-05 03:43 | 33.43835 | -112.00246 | 1131 ft | 1 kts | 151° |
| 2026-05-05 03:43 | 33.43829 | -112.00242 | 1131 ft | 1 kts | 151° |